sensor_id;sensor_type;location;lat;lon;timestamp;temperature;humidity
3790;DHT22;1910;49.042;9.028;2022-12-18T00:01:51;-9.60;99.90
3790;DHT22;1910;49.042;9.028;2022-12-18T00:04:22;-9.60;99.90
3790;DHT22;1910;49.042;9.028;2022-12-18T00:06:48;-9.70;99.90
3790;DHT22;1910;49.042;9.028;2022-12-18T00:09:15;-9.70;99.90
3790;DHT22;1910;49.042;9.028;2022-12-18T00:11:40;-9.80;99.90
3790;DHT22;1910;49.042;9.028;2022-12-18T00:14:06;-9.70;99.90
3790;DHT22;1910;49.042;9.028;2022-12-18T00:16:31;-9.80;99.90
3790;DHT22;1910;49.042;9.028;2022-12-18T00:18:59;-9.80;99.90
3790;DHT22;1910;49.042;9.028;2022-12-18T00:21:25;-9.70;99.90
3790;DHT22;1910;49.042;9.028;2022-12-18T00:23:51;-9.70;99.90
3790;DHT22;1910;49.042;9.028;2022-12-18T00:26:39;-9.60;99.90
3790;DHT22;1910;49.042;9.028;2022-12-18T00:29:11;-9.60;99.90
3790;DHT22;1910;49.042;9.028;2022-12-18T00:31:37;-9.50;99.90
3790;DHT22;1910;49.042;9.028;2022-12-18T00:34:03;-9.50;99.90
3790;DHT22;1910;49.042;9.028;2022-12-18T00:36:34;-9.50;99.90
3790;DHT22;1910;49.042;9.028;2022-12-18T00:39:02;-9.50;99.90
3790;DHT22;1910;49.042;9.028;2022-12-18T00:41:28;-9.50;99.90
3790;DHT22;1910;49.042;9.028;2022-12-18T00:44:14;-9.40;99.90
3790;DHT22;1910;49.042;9.028;2022-12-18T00:46:41;-9.30;99.90
3790;DHT22;1910;49.042;9.028;2022-12-18T00:49:07;-9.20;99.90
3790;DHT22;1910;49.042;9.028;2022-12-18T00:51:33;-9.10;99.90
3790;DHT22;1910;49.042;9.028;2022-12-18T00:53:59;-9.00;99.90
3790;DHT22;1910;49.042;9.028;2022-12-18T00:56:24;-9.00;99.90
3790;DHT22;1910;49.042;9.028;2022-12-18T00:58:50;-9.00;99.90
3790;DHT22;1910;49.042;9.028;2022-12-18T01:01:16;-8.90;99.90
3790;DHT22;1910;49.042;9.028;2022-12-18T01:03:42;-9.00;99.90
3790;DHT22;1910;49.042;9.028;2022-12-18T01:06:10;-9.10;99.90
3790;DHT22;1910;49.042;9.028;2022-12-18T01:08:37;-9.10;99.90
3790;DHT22;1910;49.042;9.028;2022-12-18T01:11:11;-9.20;99.90
3790;DHT22;1910;49.042;9.028;2022-12-18T01:13:38;-9.30;99.90
3790;DHT22;1910;49.042;9.028;2022-12-18T01:16:03;-9.40;99.90
3790;DHT22;1910;49.042;9.028;2022-12-18T01:18:29;-9.50;99.90
3790;DHT22;1910;49.042;9.028;2022-12-18T01:20:55;-9.60;99.90
3790;DHT22;1910;49.042;9.028;2022-12-18T01:23:20;-9.80;99.90
3790;DHT22;1910;49.042;9.028;2022-12-18T01:25:46;-9.80;99.90
3790;DHT22;1910;49.042;9.028;2022-12-18T01:28:11;-9.80;99.90
3790;DHT22;1910;49.042;9.028;2022-12-18T01:33:06;-9.80;99.90
3790;DHT22;1910;49.042;9.028;2022-12-18T01:37:58;-9.90;99.90
3790;DHT22;1910;49.042;9.028;2022-12-18T01:40:23;-10.00;99.90
3790;DHT22;1910;49.042;9.028;2022-12-18T01:42:53;-10.00;99.90
3790;DHT22;1910;49.042;9.028;2022-12-18T01:47:51;-10.00;99.90
3790;DHT22;1910;49.042;9.028;2022-12-18T01:50:32;-10.00;99.90
3790;DHT22;1910;49.042;9.028;2022-12-18T01:53:18;-9.90;99.90
3790;DHT22;1910;49.042;9.028;2022-12-18T01:55:50;-9.80;99.90
3790;DHT22;1910;49.042;9.028;2022-12-18T01:58:18;-9.70;99.90
3790;DHT22;1910;49.042;9.028;2022-12-18T02:00:44;-9.60;99.90
3790;DHT22;1910;49.042;9.028;2022-12-18T02:03:10;-9.60;99.90
3790;DHT22;1910;49.042;9.028;2022-12-18T02:05:44;-9.60;99.90
3790;DHT22;1910;49.042;9.028;2022-12-18T02:10:55;-9.80;99.90
3790;DHT22;1910;49.042;9.028;2022-12-18T02:18:47;-9.80;99.90
3790;DHT22;1910;49.042;9.028;2022-12-18T02:21:35;-9.80;99.90
3790;DHT22;1910;49.042;9.028;2022-12-18T02:24:29;-9.80;99.90
3790;DHT22;1910;49.042;9.028;2022-12-18T02:26:59;-9.90;99.90
3790;DHT22;1910;49.042;9.028;2022-12-18T02:29:35;-7.70;99.90
3790;DHT22;1910;49.042;9.028;2022-12-18T02:32:04;-9.80;99.90
3790;DHT22;1910;49.042;9.028;2022-12-18T02:34:33;-9.70;99.90
3790;DHT22;1910;49.042;9.028;2022-12-18T02:37:05;-9.40;99.90
3790;DHT22;1910;49.042;9.028;2022-12-18T02:39:34;-9.30;99.90
3790;DHT22;1910;49.042;9.028;2022-12-18T02:42:01;-9.40;99.90
3790;DHT22;1910;49.042;9.028;2022-12-18T02:44:46;-9.40;99.90
3790;DHT22;1910;49.042;9.028;2022-12-18T02:47:13;-9.40;99.90
3790;DHT22;1910;49.042;9.028;2022-12-18T02:53:17;-9.20;99.90
3790;DHT22;1910;49.042;9.028;2022-12-18T03:01:13;-8.90;99.90
3790;DHT22;1910;49.042;9.028;2022-12-18T03:06:20;-8.80;99.90
3790;DHT22;1910;49.042;9.028;2022-12-18T03:08:52;-8.70;99.90
3790;DHT22;1910;49.042;9.028;2022-12-18T03:11:19;-8.70;99.90
3790;DHT22;1910;49.042;9.028;2022-12-18T03:14:06;-8.30;99.90
3790;DHT22;1910;49.042;9.028;2022-12-18T03:16:34;-8.30;99.90
3790;DHT22;1910;49.042;9.028;2022-12-18T03:19:08;-8.10;99.90
3790;DHT22;1910;49.042;9.028;2022-12-18T03:21:40;-7.90;99.90
3790;DHT22;1910;49.042;9.028;2022-12-18T03:24:07;-7.90;99.90
3790;DHT22;1910;49.042;9.028;2022-12-18T03:26:35;-8.00;99.90
3790;DHT22;1910;49.042;9.028;2022-12-18T03:29:11;-7.90;99.90
3790;DHT22;1910;49.042;9.028;2022-12-18T03:31:40;-7.60;99.90
3790;DHT22;1910;49.042;9.028;2022-12-18T03:34:20;-7.40;99.90
3790;DHT22;1910;49.042;9.028;2022-12-18T03:36:46;-7.30;99.90
3790;DHT22;1910;49.042;9.028;2022-12-18T03:39:12;-7.30;99.90
3790;DHT22;1910;49.042;9.028;2022-12-18T03:41:43;-7.20;99.90
3790;DHT22;1910;49.042;9.028;2022-12-18T03:44:26;-7.10;99.90
3790;DHT22;1910;49.042;9.028;2022-12-18T03:49:56;-6.90;99.90
3790;DHT22;1910;49.042;9.028;2022-12-18T03:52:28;-6.90;99.90
3790;DHT22;1910;49.042;9.028;2022-12-18T03:54:56;-6.80;99.90
3790;DHT22;1910;49.042;9.028;2022-12-18T03:57:26;-6.80;99.90
3790;DHT22;1910;49.042;9.028;2022-12-18T03:59:57;-6.80;99.90
3790;DHT22;1910;49.042;9.028;2022-12-18T04:02:25;-6.80;99.90
3790;DHT22;1910;49.042;9.028;2022-12-18T04:04:52;-6.80;99.90
3790;DHT22;1910;49.042;9.028;2022-12-18T04:07:20;-6.80;99.90
3790;DHT22;1910;49.042;9.028;2022-12-18T04:09:48;-6.70;99.90
3790;DHT22;1910;49.042;9.028;2022-12-18T04:12:14;-6.80;99.90
3790;DHT22;1910;49.042;9.028;2022-12-18T04:14:39;-6.70;99.90
3790;DHT22;1910;49.042;9.028;2022-12-18T04:17:05;-6.60;99.90
3790;DHT22;1910;49.042;9.028;2022-12-18T04:19:30;-6.60;99.90
3790;DHT22;1910;49.042;9.028;2022-12-18T04:21:56;-6.60;99.90
3790;DHT22;1910;49.042;9.028;2022-12-18T04:24:21;-6.60;99.90
3790;DHT22;1910;49.042;9.028;2022-12-18T04:26:47;-6.60;99.90
3790;DHT22;1910;49.042;9.028;2022-12-18T04:29:12;-6.60;99.90
3790;DHT22;1910;49.042;9.028;2022-12-18T04:31:38;-6.60;99.90
3790;DHT22;1910;49.042;9.028;2022-12-18T04:34:04;-6.50;99.90
3790;DHT22;1910;49.042;9.028;2022-12-18T04:36:30;-6.60;99.90
3790;DHT22;1910;49.042;9.028;2022-12-18T04:38:55;-6.60;99.90
3790;DHT22;1910;49.042;9.028;2022-12-18T04:41:21;-6.60;99.90
3790;DHT22;1910;49.042;9.028;2022-12-18T04:43:46;-6.60;99.90
3790;DHT22;1910;49.042;9.028;2022-12-18T04:46:12;-6.70;99.90
3790;DHT22;1910;49.042;9.028;2022-12-18T04:48:37;-6.70;99.90
3790;DHT22;1910;49.042;9.028;2022-12-18T04:51:04;-6.80;99.90
3790;DHT22;1910;49.042;9.028;2022-12-18T04:53:30;-6.80;99.90
3790;DHT22;1910;49.042;9.028;2022-12-18T04:56:22;-6.90;99.90
3790;DHT22;1910;49.042;9.028;2022-12-18T04:58:47;-7.00;99.90
3790;DHT22;1910;49.042;9.028;2022-12-18T05:01:15;-7.00;99.90
3790;DHT22;1910;49.042;9.028;2022-12-18T05:03:41;-7.10;99.90
3790;DHT22;1910;49.042;9.028;2022-12-18T05:06:07;-7.10;99.90
3790;DHT22;1910;49.042;9.028;2022-12-18T05:08:32;-7.20;99.90
3790;DHT22;1910;49.042;9.028;2022-12-18T05:11:03;-6.50;99.90
3790;DHT22;1910;49.042;9.028;2022-12-18T05:13:30;-7.30;99.90
3790;DHT22;1910;49.042;9.028;2022-12-18T05:15:56;-7.40;99.90
3790;DHT22;1910;49.042;9.028;2022-12-18T05:18:25;-7.40;99.90
3790;DHT22;1910;49.042;9.028;2022-12-18T05:20:51;-7.50;99.90
3790;DHT22;1910;49.042;9.028;2022-12-18T05:23:17;-7.60;99.90
3790;DHT22;1910;49.042;9.028;2022-12-18T05:25:50;-7.60;99.90
3790;DHT22;1910;49.042;9.028;2022-12-18T05:28:15;-7.60;99.90
3790;DHT22;1910;49.042;9.028;2022-12-18T05:30:41;-7.60;99.90
3790;DHT22;1910;49.042;9.028;2022-12-18T05:33:06;-7.70;99.90
3790;DHT22;1910;49.042;9.028;2022-12-18T05:37:58;-7.60;99.90
3790;DHT22;1910;49.042;9.028;2022-12-18T05:40:23;-7.50;99.90
3790;DHT22;1910;49.042;9.028;2022-12-18T05:42:49;-7.50;99.90
3790;DHT22;1910;49.042;9.028;2022-12-18T05:45:14;-7.30;99.90
3790;DHT22;1910;49.042;9.028;2022-12-18T05:47:40;-7.30;99.90
3790;DHT22;1910;49.042;9.028;2022-12-18T05:50:06;-7.30;99.90
3790;DHT22;1910;49.042;9.028;2022-12-18T05:52:32;-7.30;99.90
3790;DHT22;1910;49.042;9.028;2022-12-18T05:54:57;-7.30;99.90
3790;DHT22;1910;49.042;9.028;2022-12-18T05:57:24;-7.20;99.90
3790;DHT22;1910;49.042;9.028;2022-12-18T05:59:49;-7.20;99.90
3790;DHT22;1910;49.042;9.028;2022-12-18T06:02:15;-7.30;99.90
3790;DHT22;1910;49.042;9.028;2022-12-18T06:04:40;-7.30;99.90
3790;DHT22;1910;49.042;9.028;2022-12-18T06:07:06;-7.30;99.90
3790;DHT22;1910;49.042;9.028;2022-12-18T06:09:32;-7.20;99.90
3790;DHT22;1910;49.042;9.028;2022-12-18T06:11:57;-7.20;99.90
3790;DHT22;1910;49.042;9.028;2022-12-18T06:14:23;-7.20;99.90
3790;DHT22;1910;49.042;9.028;2022-12-18T06:16:50;-7.20;99.90
3790;DHT22;1910;49.042;9.028;2022-12-18T06:19:16;-7.20;99.90
3790;DHT22;1910;49.042;9.028;2022-12-18T06:21:43;-7.20;99.90
3790;DHT22;1910;49.042;9.028;2022-12-18T06:24:08;-7.20;99.90
3790;DHT22;1910;49.042;9.028;2022-12-18T06:26:37;-7.30;99.90
3790;DHT22;1910;49.042;9.028;2022-12-18T06:29:03;-7.30;99.90
3790;DHT22;1910;49.042;9.028;2022-12-18T06:31:28;-7.30;99.90
3790;DHT22;1910;49.042;9.028;2022-12-18T06:33:54;-7.40;99.90
3790;DHT22;1910;49.042;9.028;2022-12-18T06:36:19;-7.40;99.90
3790;DHT22;1910;49.042;9.028;2022-12-18T06:38:46;-7.40;99.90
3790;DHT22;1910;49.042;9.028;2022-12-18T06:41:14;-7.40;99.90
3790;DHT22;1910;49.042;9.028;2022-12-18T06:43:40;-7.50;99.90
3790;DHT22;1910;49.042;9.028;2022-12-18T06:46:06;-7.50;99.90
3790;DHT22;1910;49.042;9.028;2022-12-18T06:48:32;-7.50;99.90
3790;DHT22;1910;49.042;9.028;2022-12-18T06:50:58;-7.50;99.90
3790;DHT22;1910;49.042;9.028;2022-12-18T06:53:23;-7.50;99.90
3790;DHT22;1910;49.042;9.028;2022-12-18T06:58:15;-7.50;99.90
3790;DHT22;1910;49.042;9.028;2022-12-18T07:00:41;-7.40;99.90
3790;DHT22;1910;49.042;9.028;2022-12-18T07:03:07;-7.40;99.90
3790;DHT22;1910;49.042;9.028;2022-12-18T07:07:58;-7.10;99.90
3790;DHT22;1910;49.042;9.028;2022-12-18T07:10:24;-7.30;99.90
3790;DHT22;1910;49.042;9.028;2022-12-18T07:12:50;-7.40;99.90
3790;DHT22;1910;49.042;9.028;2022-12-18T07:15:16;-7.40;99.90
3790;DHT22;1910;49.042;9.028;2022-12-18T07:17:41;-7.40;99.90
3790;DHT22;1910;49.042;9.028;2022-12-18T07:20:07;-7.40;99.90
3790;DHT22;1910;49.042;9.028;2022-12-18T07:22:33;-7.40;99.90
3790;DHT22;1910;49.042;9.028;2022-12-18T07:24:59;-7.50;99.90
3790;DHT22;1910;49.042;9.028;2022-12-18T07:27:24;-7.40;99.90
3790;DHT22;1910;49.042;9.028;2022-12-18T07:29:50;-7.50;99.90
3790;DHT22;1910;49.042;9.028;2022-12-18T07:32:15;-7.50;99.90
3790;DHT22;1910;49.042;9.028;2022-12-18T07:34:41;-7.50;99.90
3790;DHT22;1910;49.042;9.028;2022-12-18T07:37:06;-7.50;99.90
3790;DHT22;1910;49.042;9.028;2022-12-18T07:41:58;-7.50;99.90
3790;DHT22;1910;49.042;9.028;2022-12-18T07:44:42;-7.50;99.90
3790;DHT22;1910;49.042;9.028;2022-12-18T07:47:08;-7.50;99.90
3790;DHT22;1910;49.042;9.028;2022-12-18T07:49:33;-7.50;99.90
3790;DHT22;1910;49.042;9.028;2022-12-18T07:51:59;-7.50;99.90
3790;DHT22;1910;49.042;9.028;2022-12-18T07:54:25;-7.40;99.90
3790;DHT22;1910;49.042;9.028;2022-12-18T07:56:51;-7.40;99.90
3790;DHT22;1910;49.042;9.028;2022-12-18T07:59:17;-7.30;99.90
3790;DHT22;1910;49.042;9.028;2022-12-18T08:01:43;-7.30;99.90
3790;DHT22;1910;49.042;9.028;2022-12-18T08:04:09;-7.20;99.90
3790;DHT22;1910;49.042;9.028;2022-12-18T08:06:35;-7.20;99.90
3790;DHT22;1910;49.042;9.028;2022-12-18T08:09:00;-7.20;99.90
3790;DHT22;1910;49.042;9.028;2022-12-18T08:11:27;-7.30;99.90
3790;DHT22;1910;49.042;9.028;2022-12-18T08:13:53;-7.20;99.90
3790;DHT22;1910;49.042;9.028;2022-12-18T08:16:21;-7.10;99.90
3790;DHT22;1910;49.042;9.028;2022-12-18T08:21:20;-6.70;99.90
3790;DHT22;1910;49.042;9.028;2022-12-18T08:23:49;-6.60;99.90
3790;DHT22;1910;49.042;9.028;2022-12-18T08:28:41;-6.30;99.90
3790;DHT22;1910;49.042;9.028;2022-12-18T08:31:08;-6.20;99.90
3790;DHT22;1910;49.042;9.028;2022-12-18T08:33:34;-6.10;99.90
3790;DHT22;1910;49.042;9.028;2022-12-18T08:36:00;-6.00;99.90
3790;DHT22;1910;49.042;9.028;2022-12-18T08:38:26;-6.00;99.90
3790;DHT22;1910;49.042;9.028;2022-12-18T08:41:12;-5.20;99.90
3790;DHT22;1910;49.042;9.028;2022-12-18T08:43:38;-5.80;99.90
3790;DHT22;1910;49.042;9.028;2022-12-18T08:46:24;-5.80;99.90
3790;DHT22;1910;49.042;9.028;2022-12-18T08:48:51;-5.80;99.90
3790;DHT22;1910;49.042;9.028;2022-12-18T08:51:17;-5.70;99.90
3790;DHT22;1910;49.042;9.028;2022-12-18T08:53:43;-5.60;99.90
3790;DHT22;1910;49.042;9.028;2022-12-18T08:56:10;-5.50;99.90
3790;DHT22;1910;49.042;9.028;2022-12-18T08:58:35;-5.50;99.90
3790;DHT22;1910;49.042;9.028;2022-12-18T09:01:02;-5.20;99.90
3790;DHT22;1910;49.042;9.028;2022-12-18T09:03:28;-5.20;99.90
3790;DHT22;1910;49.042;9.028;2022-12-18T09:05:53;-5.10;99.90
3790;DHT22;1910;49.042;9.028;2022-12-18T09:10:46;-4.60;99.90
3790;DHT22;1910;49.042;9.028;2022-12-18T09:13:12;-4.70;99.90
3790;DHT22;1910;49.042;9.028;2022-12-18T09:15:42;-4.80;99.90
3790;DHT22;1910;49.042;9.028;2022-12-18T09:18:09;-4.90;99.90
3790;DHT22;1910;49.042;9.028;2022-12-18T09:20:35;-5.00;99.90
3790;DHT22;1910;49.042;9.028;2022-12-18T09:23:02;-4.90;99.90
3790;DHT22;1910;49.042;9.028;2022-12-18T09:25:29;-4.90;99.90
3790;DHT22;1910;49.042;9.028;2022-12-18T09:28:17;-4.80;99.90
3790;DHT22;1910;49.042;9.028;2022-12-18T09:30:47;-4.70;99.90
3790;DHT22;1910;49.042;9.028;2022-12-18T09:33:16;-4.70;99.90
3790;DHT22;1910;49.042;9.028;2022-12-18T09:35:42;-4.80;99.90
3790;DHT22;1910;49.042;9.028;2022-12-18T09:38:11;-4.90;99.90
3790;DHT22;1910;49.042;9.028;2022-12-18T09:40:43;-5.00;99.90
3790;DHT22;1910;49.042;9.028;2022-12-18T09:43:21;-5.10;99.90
3790;DHT22;1910;49.042;9.028;2022-12-18T09:45:52;-5.20;99.90
3790;DHT22;1910;49.042;9.028;2022-12-18T09:48:25;-5.10;99.90
3790;DHT22;1910;49.042;9.028;2022-12-18T09:50:55;-5.10;99.90
3790;DHT22;1910;49.042;9.028;2022-12-18T09:53:26;-5.10;99.90
3790;DHT22;1910;49.042;9.028;2022-12-18T09:55:54;-5.00;99.90
3790;DHT22;1910;49.042;9.028;2022-12-18T09:58:43;-5.00;99.90
3790;DHT22;1910;49.042;9.028;2022-12-18T10:01:12;-4.90;99.90
3790;DHT22;1910;49.042;9.028;2022-12-18T10:03:39;-4.80;99.90
3790;DHT22;1910;49.042;9.028;2022-12-18T10:06:36;-4.60;99.90
3790;DHT22;1910;49.042;9.028;2022-12-18T10:20:27;-4.10;99.90
3790;DHT22;1910;49.042;9.028;2022-12-18T10:25:36;-4.00;99.90
3790;DHT22;1910;49.042;9.028;2022-12-18T10:28:13;-3.80;99.90
3790;DHT22;1910;49.042;9.028;2022-12-18T10:30:39;-3.70;99.90
3790;DHT22;1910;49.042;9.028;2022-12-18T10:33:05;-3.70;99.90
3790;DHT22;1910;49.042;9.028;2022-12-18T10:35:31;-3.70;99.90
3790;DHT22;1910;49.042;9.028;2022-12-18T10:38:04;-3.70;99.90
3790;DHT22;1910;49.042;9.028;2022-12-18T10:40:30;-3.70;99.90
3790;DHT22;1910;49.042;9.028;2022-12-18T10:43:10;-3.60;99.90
3790;DHT22;1910;49.042;9.028;2022-12-18T10:45:36;-3.50;99.90
3790;DHT22;1910;49.042;9.028;2022-12-18T10:48:03;-3.50;99.90
3790;DHT22;1910;49.042;9.028;2022-12-18T10:50:34;-3.60;99.90
3790;DHT22;1910;49.042;9.028;2022-12-18T10:53:03;-3.60;99.90
3790;DHT22;1910;49.042;9.028;2022-12-18T10:55:34;-3.50;99.90
3790;DHT22;1910;49.042;9.028;2022-12-18T10:58:22;-3.40;99.90
3790;DHT22;1910;49.042;9.028;2022-12-18T11:03:41;-3.40;99.90
3790;DHT22;1910;49.042;9.028;2022-12-18T11:06:13;-3.20;99.90
3790;DHT22;1910;49.042;9.028;2022-12-18T11:08:41;-3.10;99.90
3790;DHT22;1910;49.042;9.028;2022-12-18T11:11:18;-3.10;99.90
3790;DHT22;1910;49.042;9.028;2022-12-18T11:14:04;-3.00;99.90
3790;DHT22;1910;49.042;9.028;2022-12-18T11:16:54;-3.00;99.90
3790;DHT22;1910;49.042;9.028;2022-12-18T11:19:26;-3.00;99.90
3790;DHT22;1910;49.042;9.028;2022-12-18T11:21:52;-3.00;99.90
3790;DHT22;1910;49.042;9.028;2022-12-18T11:24:49;-3.10;99.90
3790;DHT22;1910;49.042;9.028;2022-12-18T11:27:18;-2.80;99.90
3790;DHT22;1910;49.042;9.028;2022-12-18T11:29:44;-2.50;99.90
3790;DHT22;1910;49.042;9.028;2022-12-18T11:38:23;-2.30;99.90
3790;DHT22;1910;49.042;9.028;2022-12-18T11:41:07;-2.30;99.90
3790;DHT22;1910;49.042;9.028;2022-12-18T11:43:52;-2.20;99.90
3790;DHT22;1910;49.042;9.028;2022-12-18T11:46:36;-2.20;99.90
3790;DHT22;1910;49.042;9.028;2022-12-18T11:49:14;-2.10;99.90
3790;DHT22;1910;49.042;9.028;2022-12-18T11:51:52;-2.00;99.90
3790;DHT22;1910;49.042;9.028;2022-12-18T11:54:21;-2.00;99.90
3790;DHT22;1910;49.042;9.028;2022-12-18T11:56:51;-1.80;99.90
3790;DHT22;1910;49.042;9.028;2022-12-18T11:59:40;-1.70;99.90
3790;DHT22;1910;49.042;9.028;2022-12-18T12:10:55;-1.90;99.90
3790;DHT22;1910;49.042;9.028;2022-12-18T12:13:38;-2.00;99.90
3790;DHT22;1910;49.042;9.028;2022-12-18T12:16:24;-2.00;99.90
3790;DHT22;1910;49.042;9.028;2022-12-18T12:22:09;-1.90;99.90
3790;DHT22;1910;49.042;9.028;2022-12-18T12:30:29;-1.90;99.90
3790;DHT22;1910;49.042;9.028;2022-12-18T12:36:05;-1.80;99.90
3790;DHT22;1910;49.042;9.028;2022-12-18T12:38:46;-1.70;99.90
3790;DHT22;1910;49.042;9.028;2022-12-18T12:41:18;-1.50;99.90
3790;DHT22;1910;49.042;9.028;2022-12-18T12:44:08;-1.50;99.90
3790;DHT22;1910;49.042;9.028;2022-12-18T12:46:37;-1.40;99.90
3790;DHT22;1910;49.042;9.028;2022-12-18T12:49:17;-1.40;99.90
3790;DHT22;1910;49.042;9.028;2022-12-18T12:51:47;-1.40;99.90
3790;DHT22;1910;49.042;9.028;2022-12-18T12:54:23;-1.40;99.90
3790;DHT22;1910;49.042;9.028;2022-12-18T12:57:13;-1.40;99.90
3790;DHT22;1910;49.042;9.028;2022-12-18T13:00:04;-1.20;99.90
3790;DHT22;1910;49.042;9.028;2022-12-18T13:02:33;-1.20;99.90
3790;DHT22;1910;49.042;9.028;2022-12-18T13:05:23;-1.20;99.90
3790;DHT22;1910;49.042;9.028;2022-12-18T13:08:04;-1.10;99.90
3790;DHT22;1910;49.042;9.028;2022-12-18T13:13:00;-1.00;99.90
3790;DHT22;1910;49.042;9.028;2022-12-18T13:15:45;-0.90;99.90
3790;DHT22;1910;49.042;9.028;2022-12-18T13:21:16;-0.80;99.90
3790;DHT22;1910;49.042;9.028;2022-12-18T13:23:38;-0.90;99.90
3790;DHT22;1910;49.042;9.028;2022-12-18T13:33:47;-1.30;99.90
3790;DHT22;1910;49.042;9.028;2022-12-18T13:36:29;-1.40;99.90
3790;DHT22;1910;49.042;9.028;2022-12-18T13:39:33;-1.40;99.90
3790;DHT22;1910;49.042;9.028;2022-12-18T13:44:38;-1.40;99.90
3790;DHT22;1910;49.042;9.028;2022-12-18T13:47:32;-1.40;99.90
3790;DHT22;1910;49.042;9.028;2022-12-18T13:49:59;-1.40;99.90
3790;DHT22;1910;49.042;9.028;2022-12-18T13:52:28;-1.40;99.90
3790;DHT22;1910;49.042;9.028;2022-12-18T13:54:59;-1.40;99.90
3790;DHT22;1910;49.042;9.028;2022-12-18T13:57:35;-1.40;99.90
3790;DHT22;1910;49.042;9.028;2022-12-18T14:00:23;-1.40;99.90
3790;DHT22;1910;49.042;9.028;2022-12-18T14:02:50;-1.40;99.90
3790;DHT22;1910;49.042;9.028;2022-12-18T14:05:26;-1.40;99.90
3790;DHT22;1910;49.042;9.028;2022-12-18T14:07:53;-1.50;99.90
3790;DHT22;1910;49.042;9.028;2022-12-18T14:10:19;-1.50;99.90
3790;DHT22;1910;49.042;9.028;2022-12-18T14:12:47;-1.70;99.90
3790;DHT22;1910;49.042;9.028;2022-12-18T14:17:50;-1.70;99.90
3790;DHT22;1910;49.042;9.028;2022-12-18T14:20:17;-1.70;99.90
3790;DHT22;1910;49.042;9.028;2022-12-18T14:22:45;-1.80;99.90
3790;DHT22;1910;49.042;9.028;2022-12-18T14:25:19;-1.80;99.90
3790;DHT22;1910;49.042;9.028;2022-12-18T14:28:32;-1.80;99.90
3790;DHT22;1910;49.042;9.028;2022-12-18T14:30:37;-1.80;99.90
3790;DHT22;1910;49.042;9.028;2022-12-18T14:33:14;-1.80;99.90
3790;DHT22;1910;49.042;9.028;2022-12-18T14:35:51;-1.90;99.90
3790;DHT22;1910;49.042;9.028;2022-12-18T14:40:58;-2.00;99.90
3790;DHT22;1910;49.042;9.028;2022-12-18T14:43:25;-1.50;99.90
3790;DHT22;1910;49.042;9.028;2022-12-18T14:45:51;-2.00;99.90
3790;DHT22;1910;49.042;9.028;2022-12-18T14:48:30;-2.00;99.90
3790;DHT22;1910;49.042;9.028;2022-12-18T14:51:05;-2.00;99.90
3790;DHT22;1910;49.042;9.028;2022-12-18T14:53:39;-2.10;99.90
3790;DHT22;1910;49.042;9.028;2022-12-18T14:56:18;-2.20;99.90
3790;DHT22;1910;49.042;9.028;2022-12-18T14:58:46;-2.20;99.90
3790;DHT22;1910;49.042;9.028;2022-12-18T15:01:39;-2.20;99.90
3790;DHT22;1910;49.042;9.028;2022-12-18T15:04:29;-2.30;99.90
3790;DHT22;1910;49.042;9.028;2022-12-18T15:09:29;-2.30;99.90
3790;DHT22;1910;49.042;9.028;2022-12-18T15:12:00;-2.30;99.90
3790;DHT22;1910;49.042;9.028;2022-12-18T15:14:40;-2.30;99.90
3790;DHT22;1910;49.042;9.028;2022-12-18T15:17:23;-2.40;99.90
3790;DHT22;1910;49.042;9.028;2022-12-18T15:19:59;-2.20;99.90
3790;DHT22;1910;49.042;9.028;2022-12-18T15:22:35;-2.40;99.90
3790;DHT22;1910;49.042;9.028;2022-12-18T15:25:02;-2.40;99.90
3790;DHT22;1910;49.042;9.028;2022-12-18T15:27:33;-2.40;99.90
3790;DHT22;1910;49.042;9.028;2022-12-18T15:32:28;-2.50;99.90
3790;DHT22;1910;49.042;9.028;2022-12-18T15:35:20;-2.60;99.90
3790;DHT22;1910;49.042;9.028;2022-12-18T15:37:46;-2.60;99.90
3790;DHT22;1910;49.042;9.028;2022-12-18T15:40:23;-2.50;99.90
3790;DHT22;1910;49.042;9.028;2022-12-18T15:42:52;-2.70;99.90
3790;DHT22;1910;49.042;9.028;2022-12-18T15:45:37;-2.70;99.90
3790;DHT22;1910;49.042;9.028;2022-12-18T15:48:15;-2.80;99.90
3790;DHT22;1910;49.042;9.028;2022-12-18T15:50:43;-2.80;99.90
3790;DHT22;1910;49.042;9.028;2022-12-18T15:55:34;-2.80;99.90
3790;DHT22;1910;49.042;9.028;2022-12-18T15:58:18;-2.90;99.90
3790;DHT22;1910;49.042;9.028;2022-12-18T16:00:45;-3.00;99.90
3790;DHT22;1910;49.042;9.028;2022-12-18T16:03:10;-2.90;99.90
3790;DHT22;1910;49.042;9.028;2022-12-18T16:05:36;-2.80;99.90
3790;DHT22;1910;49.042;9.028;2022-12-18T16:08:02;-2.80;99.90
3790;DHT22;1910;49.042;9.028;2022-12-18T16:10:27;-2.90;99.90
3790;DHT22;1910;49.042;9.028;2022-12-18T16:12:53;-2.90;99.90
3790;DHT22;1910;49.042;9.028;2022-12-18T16:17:46;-2.80;99.90
3790;DHT22;1910;49.042;9.028;2022-12-18T16:20:19;-2.80;99.90
3790;DHT22;1910;49.042;9.028;2022-12-18T16:25:23;-2.80;99.90
3790;DHT22;1910;49.042;9.028;2022-12-18T16:27:51;-2.80;99.90
3790;DHT22;1910;49.042;9.028;2022-12-18T16:30:20;-2.80;99.90
3790;DHT22;1910;49.042;9.028;2022-12-18T16:32:46;-2.70;99.90
3790;DHT22;1910;49.042;9.028;2022-12-18T16:35:14;-2.70;99.90
3790;DHT22;1910;49.042;9.028;2022-12-18T16:37:41;-2.70;99.90
3790;DHT22;1910;49.042;9.028;2022-12-18T16:40:08;-2.70;99.90
3790;DHT22;1910;49.042;9.028;2022-12-18T16:42:36;-2.70;99.90
3790;DHT22;1910;49.042;9.028;2022-12-18T16:45:02;-2.70;99.90
3790;DHT22;1910;49.042;9.028;2022-12-18T16:47:28;-2.70;99.90
3790;DHT22;1910;49.042;9.028;2022-12-18T16:52:20;-2.70;99.90
3790;DHT22;1910;49.042;9.028;2022-12-18T16:54:46;-2.70;99.90
3790;DHT22;1910;49.042;9.028;2022-12-18T16:57:13;-2.60;99.90
3790;DHT22;1910;49.042;9.028;2022-12-18T16:59:39;-2.60;99.90
3790;DHT22;1910;49.042;9.028;2022-12-18T17:02:06;-2.60;99.90
3790;DHT22;1910;49.042;9.028;2022-12-18T17:07:01;-2.70;99.90
3790;DHT22;1910;49.042;9.028;2022-12-18T17:11:54;-2.60;99.90
3790;DHT22;1910;49.042;9.028;2022-12-18T17:14:22;-2.60;99.90
3790;DHT22;1910;49.042;9.028;2022-12-18T17:16:48;-2.60;99.90
3790;DHT22;1910;49.042;9.028;2022-12-18T17:19:14;-2.50;99.90
3790;DHT22;1910;49.042;9.028;2022-12-18T17:21:41;-2.50;99.90
3790;DHT22;1910;49.042;9.028;2022-12-18T17:24:08;-2.50;99.90
3790;DHT22;1910;49.042;9.028;2022-12-18T17:26:33;-2.50;99.90
3790;DHT22;1910;49.042;9.028;2022-12-18T17:28:59;-2.60;99.90
3790;DHT22;1910;49.042;9.028;2022-12-18T17:31:28;-2.60;99.90
3790;DHT22;1910;49.042;9.028;2022-12-18T17:33:54;-2.60;99.90
3790;DHT22;1910;49.042;9.028;2022-12-18T17:36:20;-2.60;99.90
3790;DHT22;1910;49.042;9.028;2022-12-18T17:38:50;-2.60;99.90
3790;DHT22;1910;49.042;9.028;2022-12-18T17:41:16;-2.60;99.90
3790;DHT22;1910;49.042;9.028;2022-12-18T17:46:12;-2.60;99.90
3790;DHT22;1910;49.042;9.028;2022-12-18T17:48:38;-2.60;99.90
3790;DHT22;1910;49.042;9.028;2022-12-18T17:51:06;-2.60;99.90
3790;DHT22;1910;49.042;9.028;2022-12-18T17:53:32;-2.60;99.90
3790;DHT22;1910;49.042;9.028;2022-12-18T17:55:59;-2.60;99.90
3790;DHT22;1910;49.042;9.028;2022-12-18T17:58:31;-2.60;99.90
3790;DHT22;1910;49.042;9.028;2022-12-18T18:00:58;-2.60;99.90
3790;DHT22;1910;49.042;9.028;2022-12-18T18:03:23;-2.60;99.90
3790;DHT22;1910;49.042;9.028;2022-12-18T18:05:57;-2.60;99.90
3790;DHT22;1910;49.042;9.028;2022-12-18T18:08:24;-2.70;99.90
3790;DHT22;1910;49.042;9.028;2022-12-18T18:10:50;-2.70;99.90
3790;DHT22;1910;49.042;9.028;2022-12-18T18:13:19;-2.70;99.90
3790;DHT22;1910;49.042;9.028;2022-12-18T18:16:04;-2.80;99.90
3790;DHT22;1910;49.042;9.028;2022-12-18T18:18:30;-2.80;99.90
3790;DHT22;1910;49.042;9.028;2022-12-18T18:20:56;-2.80;99.90
3790;DHT22;1910;49.042;9.028;2022-12-18T18:23:21;-2.80;99.90
3790;DHT22;1910;49.042;9.028;2022-12-18T18:25:47;-2.80;99.90
3790;DHT22;1910;49.042;9.028;2022-12-18T18:33:05;-2.70;99.90
3790;DHT22;1910;49.042;9.028;2022-12-18T18:35:30;-2.60;99.90
3790;DHT22;1910;49.042;9.028;2022-12-18T18:37:56;-2.60;99.90
3790;DHT22;1910;49.042;9.028;2022-12-18T18:42:48;-2.60;99.90